Time;durP1;ratioP1;P1;durP2;ratioP2;P2;SDS_P1;SDS_P2;PMS_P1;PMS_P2;Temp;Humidity;BMP_temperature;BMP_pressure;BME280_temperature;BME280_humidity;BME280_pressure;Samples;Min_cycle;Max_cycle;Signal;HPM_P1;HPM_P2
2023/09/13 00:02:24;;;;;;;6.03;4.43;;;20.30;99.90;;;;;;5240193;28;20444;-51
2023/09/13 00:04:56;;;;;;;6.43;5.80;;;20.30;99.90;;;;;;5241085;28;20505;-49
2023/09/13 00:07:27;;;;;;;7.03;5.33;;;20.30;99.90;;;;;;5241975;28;20197;-51
2023/09/13 00:09:58;;;;;;;9.20;5.50;;;20.30;99.90;;;;;;5235436;28;21068;-50
2023/09/13 00:12:29;;;;;;;7.93;5.83;;;20.30;99.90;;;;;;5248913;28;20624;-51
2023/09/13 00:14:59;;;;;;;6.13;5.60;;;20.30;99.90;;;;;;5241705;28;20951;-48
2023/09/13 00:17:30;;;;;;;6.90;5.27;;;20.40;99.90;;;;;;5230015;28;20191;-49
2023/09/13 00:20:03;;;;;;;6.77;5.80;;;20.40;99.90;;;;;;5250309;28;20186;-49
2023/09/13 00:22:34;;;;;;;6.80;6.17;;;20.40;99.90;;;;;;5245530;28;20202;-48
2023/09/13 00:25:05;;;;;;;5.63;5.10;;;20.40;99.90;;;;;;5242399;28;20527;-48
2023/09/13 00:27:35;;;;;;;6.30;5.70;;;20.40;99.90;;;;;;5233229;28;20670;-51
2023/09/13 00:30:08;;;;;;;8.70;7.07;;;20.40;99.90;;;;;;5247043;28;20446;-51
2023/09/13 00:32:39;;;;;;;9.23;6.63;;;20.50;99.90;;;;;;5242725;28;20268;-49
2023/09/13 00:35:10;;;;;;;5.53;5.10;;;20.50;99.90;;;;;;5240445;28;20830;-49
2023/09/13 00:37:40;;;;;;;13.60;5.30;;;20.60;99.90;;;;;;5244303;28;20628;-51
2023/09/13 00:40:11;;;;;;;8.23;6.70;;;20.60;99.90;;;;;;5240903;28;20277;-51
2023/09/13 00:42:42;;;;;;;9.57;6.17;;;20.60;99.90;;;;;;5239126;28;20205;-48
2023/09/13 00:45:13;;;;;;;6.30;5.80;;;20.70;99.90;;;;;;5240234;28;20178;-50
2023/09/13 00:47:44;;;;;;;9.23;6.10;;;20.70;99.90;;;;;;5241093;28;20245;-49
2023/09/13 00:50:16;;;;;;;5.23;4.83;;;20.70;99.90;;;;;;5240207;28;20252;-50
2023/09/13 00:52:47;;;;;;;10.10;5.90;;;20.70;99.90;;;;;;5245579;28;20214;-50
2023/09/13 00:55:21;;;;;;;10.63;5.43;;;20.80;99.90;;;;;;5230906;28;20455;-49
2023/09/13 00:57:53;;;;;;;4.90;4.50;;;20.80;99.90;;;;;;5240221;28;20524;-49
2023/09/13 01:00:27;;;;;;;5.60;4.57;;;20.80;99.90;;;;;;5225530;28;20956;-51
2023/09/13 01:02:58;;;;;;;5.67;5.17;;;20.80;99.90;;;;;;5225402;28;20461;-49
2023/09/13 01:05:29;;;;;;;5.90;4.90;;;20.90;99.90;;;;;;5251932;28;20444;-50
2023/09/13 01:08:01;;;;;;;4.90;4.40;;;20.80;99.90;;;;;;5242490;28;20507;-48
2023/09/13 01:10:32;;;;;;;12.80;5.90;;;20.80;99.90;;;;;;5254056;28;20178;-48
2023/09/13 01:13:03;;;;;;;6.03;5.47;;;20.80;99.90;;;;;;5248772;28;20969;-48
2023/09/13 01:15:40;;;;;;;13.07;4.50;;;20.80;99.90;;;;;;5262235;28;20189;-49
2023/09/13 01:18:35;;;;;;;7.50;5.63;;;20.80;99.90;;;;;;5265190;28;20455;-48
2023/09/13 01:21:43;;;;;;;5.57;4.97;;;20.70;99.90;;;;;;5265780;28;20424;-48
2023/09/13 01:24:22;;;;;;;7.93;5.27;;;20.70;99.90;;;;;;5246142;28;20536;-48
2023/09/13 01:27:06;;;;;;;5.87;4.77;;;20.70;99.90;;;;;;5257199;28;20507;-48
2023/09/13 01:29:38;;;;;;;7.83;5.20;;;20.70;99.90;;;;;;5259192;28;20435;-49
2023/09/13 01:32:11;;;;;;;11.50;5.40;;;20.70;99.90;;;;;;5251396;28;20558;-48
2023/09/13 01:34:42;;;;;;;6.23;4.60;;;20.60;99.90;;;;;;5245520;28;20481;-48
2023/09/13 01:37:13;;;;;;;15.63;5.37;;;20.60;99.90;;;;;;5249078;28;20435;-48
2023/09/13 01:39:44;;;;;;;5.23;4.83;;;20.60;99.90;;;;;;5249613;28;20217;-48
2023/09/13 01:42:16;;;;;;;5.30;4.80;;;20.50;99.90;;;;;;5262981;28;20247;-48
2023/09/13 01:44:50;;;;;;;8.97;5.00;;;20.50;99.90;;;;;;5258243;28;20224;-48
2023/09/13 01:47:25;;;;;;;5.70;4.40;;;20.40;99.90;;;;;;5240752;28;20440;-48
2023/09/13 01:49:57;;;;;;;3.90;3.70;;;20.50;99.90;;;;;;5236758;28;20436;-48
2023/09/13 01:52:29;;;;;;;5.00;4.50;;;20.50;99.90;;;;;;5267410;28;20486;-48
2023/09/13 01:55:05;;;;;;;8.10;4.40;;;20.60;99.90;;;;;;5242972;28;20489;-48
2023/09/13 01:57:36;;;;;;;3.60;3.40;;;20.60;99.90;;;;;;5249765;28;20920;-48
2023/09/13 02:00:07;;;;;;;4.90;4.50;;;20.70;99.90;;;;;;5262039;28;20514;-49
2023/09/13 02:02:38;;;;;;;4.97;3.63;;;20.80;99.90;;;;;;5257215;28;20331;-48
2023/09/13 02:05:09;;;;;;;7.53;5.30;;;20.90;99.90;;;;;;5246786;28;20981;-49
2023/09/13 02:07:40;;;;;;;7.73;3.83;;;21.10;99.90;;;;;;5241631;28;20196;-48
2023/09/13 02:10:10;;;;;;;13.90;4.47;;;21.20;99.90;;;;;;5258241;28;20189;-49
2023/09/13 02:12:41;;;;;;;10.47;4.67;;;21.20;99.90;;;;;;5242513;28;20201;-50
2023/09/13 02:15:12;;;;;;;20.43;5.00;;;20.90;99.90;;;;;;5239050;28;20531;-51
2023/09/13 02:17:43;;;;;;;16.63;5.43;;;20.50;99.90;;;;;;5241164;28;20186;-50
2023/09/13 02:20:14;;;;;;;6.73;4.63;;;20.10;99.90;;;;;;5247447;28;20436;-49
2023/09/13 02:22:48;;;;;;;9.60;5.00;;;19.70;99.90;;;;;;5267765;28;20205;-52
2023/09/13 02:25:18;;;;;;;15.23;6.00;;;19.40;99.90;;;;;;5245114;28;20442;-49
2023/09/13 02:27:49;;;;;;;9.73;5.97;;;19.10;99.90;;;;;;5247618;28;20526;-49
2023/09/13 02:30:22;;;;;;;10.40;5.57;;;19.00;99.90;;;;;;5268870;28;20196;-50
2023/09/13 02:32:52;;;;;;;12.10;5.80;;;18.90;99.90;;;;;;5238867;28;20194;-49
2023/09/13 02:35:23;;;;;;;10.00;6.10;;;18.80;99.90;;;;;;5248854;28;20790;-49
2023/09/13 02:37:55;;;;;;;8.40;6.47;;;18.70;99.90;;;;;;5246278;28;20566;-50
2023/09/13 02:40:26;;;;;;;7.40;5.97;;;18.60;99.90;;;;;;5241282;28;20193;-49
2023/09/13 02:42:56;;;;;;;13.40;7.30;;;18.60;99.90;;;;;;5261232;28;20896;-50
2023/09/13 02:45:29;;;;;;;7.40;5.73;;;18.50;99.90;;;;;;5237186;28;20181;-49
2023/09/13 02:48:00;;;;;;;10.67;6.83;;;18.50;99.90;;;;;;5260548;28;20204;-48
2023/09/13 02:50:30;;;;;;;11.73;6.20;;;18.30;99.90;;;;;;5269853;28;20440;-49
2023/09/13 02:53:01;;;;;;;8.27;5.37;;;18.20;99.90;;;;;;5251518;28;20581;-49
2023/09/13 02:55:32;;;;;;;17.63;6.40;;;18.20;99.90;;;;;;5251229;28;20610;-52
2023/09/13 02:58:04;;;;;;;12.30;6.47;;;18.10;99.90;;;;;;5250139;28;20228;-50
2023/09/13 03:00:35;;;;;;;16.13;8.87;;;18.00;99.90;;;;;;5256420;28;20179;-49
2023/09/13 03:03:05;;;;;;;15.33;7.67;;;17.80;99.90;;;;;;5244715;28;20547;-50
2023/09/13 03:05:39;;;;;;;16.37;8.43;;;17.80;99.90;;;;;;5243887;28;20186;-49
2023/09/13 03:08:10;;;;;;;16.83;9.43;;;17.70;99.90;;;;;;5244417;28;20856;-50
2023/09/13 03:10:40;;;;;;;19.17;8.57;;;17.70;99.90;;;;;;5259052;28;20579;-50
2023/09/13 03:13:11;;;;;;;10.40;7.37;;;17.70;99.90;;;;;;5224182;28;20259;-49
2023/09/13 03:15:42;;;;;;;18.90;8.73;;;17.70;99.90;;;;;;5258403;28;20211;-49
2023/09/13 03:18:12;;;;;;;17.40;9.60;;;17.70;99.90;;;;;;5242319;28;20201;-50
2023/09/13 03:20:43;;;;;;;14.23;9.13;;;17.60;99.90;;;;;;5242849;28;20186;-49
2023/09/13 03:23:14;;;;;;;19.80;10.63;;;17.60;99.90;;;;;;5258272;28;20198;-51
2023/09/13 03:25:44;;;;;;;20.90;11.20;;;17.50;99.90;;;;;;5264905;28;20182;-51
2023/09/13 03:28:15;;;;;;;14.30;10.03;;;17.50;99.90;;;;;;5262064;28;20657;-50
2023/09/13 03:30:46;;;;;;;21.03;12.00;;;17.60;99.90;;;;;;5257028;28;20179;-49
2023/09/13 03:33:16;;;;;;;20.50;12.23;;;17.50;99.90;;;;;;5261173;28;20255;-49
2023/09/13 03:35:47;;;;;;;22.90;11.93;;;17.50;99.90;;;;;;5258215;28;20217;-49
2023/09/13 03:38:18;;;;;;;20.70;11.60;;;17.50;99.90;;;;;;5264673;28;20533;-51
2023/09/13 03:40:48;;;;;;;26.13;12.77;;;17.50;99.90;;;;;;5244432;28;20177;-49
2023/09/13 03:43:19;;;;;;;26.47;14.90;;;17.50;99.90;;;;;;5251368;28;20197;-49
2023/09/13 03:45:49;;;;;;;28.10;13.53;;;17.60;99.90;;;;;;5245581;28;20546;-50
2023/09/13 03:48:20;;;;;;;27.33;11.87;;;17.60;99.90;;;;;;5258266;28;20220;-49
2023/09/13 03:50:51;;;;;;;14.67;10.47;;;17.60;99.90;;;;;;5247167;28;20641;-50
2023/09/13 03:53:22;;;;;;;32.30;14.93;;;17.60;99.90;;;;;;5263306;28;20217;-50
2023/09/13 03:55:53;;;;;;;23.13;13.30;;;17.60;99.90;;;;;;5263575;28;20511;-48
2023/09/13 03:58:24;;;;;;;20.50;12.37;;;17.50;99.90;;;;;;5255617;28;20212;-51
2023/09/13 04:00:55;;;;;;;13.73;9.53;;;17.50;99.90;;;;;;5238941;28;20432;-49
2023/09/13 04:03:26;;;;;;;20.27;11.63;;;17.50;99.90;;;;;;5259422;28;20222;-51
2023/09/13 04:05:57;;;;;;;17.93;12.50;;;17.50;99.90;;;;;;5240454;28;20433;-49
2023/09/13 04:08:28;;;;;;;27.47;12.80;;;17.40;99.90;;;;;;5240773;28;20442;-50
2023/09/13 04:10:59;;;;;;;35.00;16.10;;;17.40;99.90;;;;;;5263266;28;20174;-51
2023/09/13 04:13:30;;;;;;;21.90;13.27;;;17.40;99.90;;;;;;5259005;28;20431;-50
2023/09/13 04:16:02;;;;;;;33.53;17.00;;;17.40;99.90;;;;;;5244298;28;20182;-49
2023/09/13 04:18:33;;;;;;;30.27;15.60;;;17.40;99.90;;;;;;5259056;28;20828;-48
2023/09/13 04:21:04;;;;;;;33.30;17.17;;;17.40;99.90;;;;;;5245110;28;20431;-50
2023/09/13 04:23:35;;;;;;;37.90;18.47;;;17.40;99.90;;;;;;5238577;28;20174;-49
2023/09/13 04:26:06;;;;;;;38.63;18.40;;;17.40;99.90;;;;;;5248218;28;20314;-49
2023/09/13 04:28:36;;;;;;;38.17;17.27;;;17.30;99.90;;;;;;5258740;28;20327;-48
2023/09/13 04:31:07;;;;;;;30.87;17.50;;;17.40;99.90;;;;;;5234591;28;20345;-51
2023/09/13 04:33:49;;;;;;;49.00;23.03;;;17.30;99.90;;;;;;5260071;28;20650;-49
2023/09/13 04:36:20;;;;;;;42.90;20.20;;;17.30;99.90;;;;;;5255500;28;20224;-50
2023/09/13 04:38:53;;;;;;;32.87;19.37;;;17.30;99.90;;;;;;5263843;28;20463;-49
2023/09/13 04:41:24;;;;;;;48.17;24.20;;;17.30;99.90;;;;;;5258274;28;20525;-49
2023/09/13 04:43:55;;;;;;;47.37;22.60;;;17.30;99.90;;;;;;5240559;28;20433;-49
2023/09/13 04:46:25;;;;;;;29.93;16.63;;;17.30;99.90;;;;;;5226974;28;20564;-49
2023/09/13 04:48:57;;;;;;;44.07;23.33;;;17.40;99.90;;;;;;5235488;28;20179;-49
2023/09/13 04:51:27;;;;;;;43.37;22.90;;;17.30;99.90;;;;;;5251063;28;20227;-49
2023/09/13 04:53:58;;;;;;;37.43;22.20;;;17.30;99.90;;;;;;5244310;28;20527;-49
2023/09/13 04:56:29;;;;;;;28.03;16.93;;;17.40;99.90;;;;;;5249418;28;20678;-49
2023/09/13 04:58:59;;;;;;;29.60;18.40;;;17.40;99.90;;;;;;5239446;28;20217;-49
2023/09/13 05:01:30;;;;;;;30.83;19.03;;;17.50;99.90;;;;;;5241530;28;20198;-49
2023/09/13 05:04:04;;;;;;;41.10;20.83;;;17.50;99.90;;;;;;5260332;28;20181;-49
2023/09/13 05:06:34;;;;;;;24.23;14.80;;;17.50;99.90;;;;;;5254123;28;20439;-51
2023/09/13 05:09:08;;;;;;;28.13;17.67;;;17.50;99.90;;;;;;5265336;28;20441;-49
2023/09/13 05:11:39;;;;;;;21.40;15.67;;;17.60;99.90;;;;;;5245704;28;20241;-49
2023/09/13 05:14:14;;;;;;;32.60;19.00;;;17.60;99.90;;;;;;5267137;28;20420;-49
2023/09/13 05:16:45;;;;;;;21.80;16.73;;;17.70;99.90;;;;;;5265075;28;20897;-51
2023/09/13 05:19:17;;;;;;;39.37;23.27;;;17.70;99.90;;;;;;5267006;28;20561;-50
2023/09/13 05:21:48;;;;;;;25.27;17.33;;;17.80;99.90;;;;;;5255053;28;20205;-49
2023/09/13 05:24:19;;;;;;;30.53;18.67;;;17.80;99.90;;;;;;5241320;28;20441;-49
2023/09/13 05:26:50;;;;;;;34.93;20.50;;;17.90;99.90;;;;;;5262531;28;20169;-49
2023/09/13 05:29:22;;;;;;;39.43;21.40;;;18.00;99.90;;;;;;5250144;28;20182;-49
2023/09/13 05:31:53;;;;;;;29.33;19.30;;;18.00;99.90;;;;;;5259836;28;20459;-48
2023/09/13 05:34:24;;;;;;;27.60;17.30;;;18.10;99.90;;;;;;5253012;28;20558;-51
2023/09/13 05:36:55;;;;;;;32.13;19.00;;;18.20;99.90;;;;;;5242736;28;20193;-50
2023/09/13 05:39:26;;;;;;;28.50;20.30;;;18.30;99.90;;;;;;5246022;28;20201;-49
2023/09/13 05:42:00;;;;;;;24.97;19.10;;;18.30;99.90;;;;;;5264946;28;20435;-48
2023/09/13 05:44:33;;;;;;;24.73;20.07;;;18.30;99.90;;;;;;5237045;28;20512;-50
2023/09/13 05:47:05;;;;;;;26.73;19.93;;;18.40;99.90;;;;;;5265297;28;20447;-50
2023/09/13 05:49:36;;;;;;;30.80;20.60;;;18.60;99.90;;;;;;5258779;28;20450;-50
2023/09/13 05:52:07;;;;;;;34.37;20.97;;;18.80;99.90;;;;;;5269029;28;20233;-50
2023/09/13 05:54:38;;;;;;;27.20;19.70;;;18.90;99.90;;;;;;5265982;28;20190;-50
2023/09/13 05:57:11;;;;;;;27.67;21.80;;;19.00;99.90;;;;;;5236782;28;20553;-50
2023/09/13 05:59:43;;;;;;;32.60;21.13;;;19.40;99.90;;;;;;5229532;28;20285;-49
2023/09/13 06:02:13;;;;;;;32.60;20.63;;;20.50;99.90;;;;;;5242216;28;20456;-49
2023/09/13 06:04:44;;;;;;;52.27;24.17;;;21.80;99.90;;;;;;5241479;28;20455;-48
2023/09/13 06:07:15;;;;;;;19.40;15.80;;;22.70;99.90;;;;;;5261329;28;20589;-51
2023/09/13 06:09:46;;;;;;;26.60;13.77;;;23.80;99.90;;;;;;5250544;28;20221;-53
2023/09/13 06:12:17;;;;;;;10.50;9.50;;;25.10;99.90;;;;;;5257277;28;20349;-50
2023/09/13 06:14:51;;;;;;;12.60;9.90;;;25.80;99.90;;;;;;5263271;28;20192;-51
2023/09/13 06:17:22;;;;;;;9.50;8.57;;;26.60;99.90;;;;;;5246215;28;20185;-50
2023/09/13 06:19:53;;;;;;;13.30;9.67;;;27.30;99.90;;;;;;5241646;28;20902;-50
2023/09/13 06:22:24;;;;;;;13.83;9.17;;;28.10;99.90;;;;;;5250141;28;20563;-53
2023/09/13 06:24:55;;;;;;;14.80;8.53;;;28.90;99.90;;;;;;5258204;28;20214;-50
2023/09/13 06:27:26;;;;;;;11.90;7.30;;;29.40;99.90;;;;;;5253064;28;20186;-51
2023/09/13 06:29:56;;;;;;;8.30;6.60;;;29.80;99.90;;;;;;5227713;28;20637;-53
2023/09/13 06:32:27;;;;;;;17.53;8.33;;;30.40;99.90;;;;;;5259901;28;20206;-52
2023/09/13 06:34:58;;;;;;;16.33;7.93;;;30.40;99.90;;;;;;5266386;28;21027;-50
2023/09/13 06:37:29;;;;;;;12.50;6.53;;;30.70;99.90;;;;;;5264288;28;20182;-50
2023/09/13 06:40:00;;;;;;;9.53;6.47;;;31.40;99.90;;;;;;5263347;28;20779;-50
2023/09/13 06:42:30;;;;;;;11.43;6.20;;;32.30;95.90;;;;;;5244542;28;20202;-52
2023/09/13 06:45:02;;;;;;;7.03;5.50;;;32.50;91.60;;;;;;5269691;28;20216;-52
2023/09/13 06:47:37;;;;;;;6.80;5.73;;;32.90;92.10;;;;;;5249451;28;20521;-50
2023/09/13 06:50:08;;;;;;;5.20;4.70;;;33.40;81.10;;;;;;5233751;28;20444;-50
2023/09/13 06:52:38;;;;;;;5.63;4.93;;;33.50;79.00;;;;;;5231731;28;20543;-52
2023/09/13 06:55:09;;;;;;;5.43;4.93;;;33.20;74.80;;;;;;5250156;28;20431;-49
2023/09/13 06:57:40;;;;;;;9.20;5.80;;;31.50;74.80;;;;;;5263876;28;20193;-50
2023/09/13 07:00:13;;;;;;;12.90;5.33;;;29.60;81.00;;;;;;5239787;28;20213;-52
2023/09/13 07:02:45;;;;;;;7.77;5.10;;;27.60;89.80;;;;;;5261285;28;20206;-51
2023/09/13 07:05:15;;;;;;;7.63;5.23;;;26.00;94.80;;;;;;5261401;28;20950;-50
2023/09/13 07:07:46;;;;;;;5.97;5.43;;;24.90;99.90;;;;;;5243440;28;20467;-50
2023/09/13 07:10:17;;;;;;;11.07;5.47;;;24.00;99.90;;;;;;5253548;28;20186;-53
2023/09/13 07:12:48;;;;;;;10.70;6.20;;;23.50;99.90;;;;;;5222255;28;20206;-51
2023/09/13 07:15:19;;;;;;;6.60;5.37;;;23.00;99.90;;;;;;5257361;28;20189;-51
2023/09/13 07:17:51;;;;;;;5.50;5.00;;;22.60;99.90;;;;;;5229492;28;20173;-51
2023/09/13 07:20:22;;;;;;;5.70;5.10;;;22.40;99.90;;;;;;5255817;28;20246;-50
2023/09/13 07:22:53;;;;;;;7.83;5.43;;;22.40;99.90;;;;;;5259520;28;21062;-50
2023/09/13 07:25:24;;;;;;;5.23;4.70;;;22.30;99.90;;;;;;5257693;28;20439;-52
2023/09/13 07:27:55;;;;;;;5.90;5.40;;;22.20;99.90;;;;;;5243777;28;20432;-50
2023/09/13 07:30:26;;;;;;;6.03;5.40;;;22.00;99.90;;;;;;5258935;28;20178;-50
2023/09/13 07:32:57;;;;;;;4.60;4.30;;;21.80;99.90;;;;;;5240522;28;20538;-50
2023/09/13 07:35:28;;;;;;;4.97;4.20;;;21.90;99.90;;;;;;5239503;28;20463;-49
2023/09/13 07:37:59;;;;;;;7.47;5.77;;;21.90;99.90;;;;;;5241748;28;20242;-51
2023/09/13 07:40:30;;;;;;;6.50;5.27;;;22.30;99.90;;;;;;5261682;28;20553;-50
2023/09/13 07:43:00;;;;;;;4.30;3.93;;;22.60;99.90;;;;;;5259237;28;20558;-50
2023/09/13 07:45:32;;;;;;;7.90;5.00;;;22.60;99.90;;;;;;5259005;28;20220;-51
2023/09/13 07:48:04;;;;;;;5.10;4.60;;;22.30;99.90;;;;;;5257919;28;20621;-51
2023/09/13 07:50:42;;;;;;;5.70;4.50;;;22.10;99.90;;;;;;5241055;28;20480;-51
2023/09/13 07:53:13;;;;;;;6.77;4.40;;;21.90;99.90;;;;;;5239911;28;20499;-50
2023/09/13 07:55:44;;;;;;;6.00;4.50;;;21.80;99.90;;;;;;5234943;28;20461;-50
2023/09/13 07:58:14;;;;;;;4.70;4.37;;;21.80;99.90;;;;;;5255933;28;20218;-50
2023/09/13 08:00:46;;;;;;;11.53;5.37;;;21.60;99.90;;;;;;5236768;28;20178;-50
2023/09/13 08:03:16;;;;;;;4.77;4.40;;;21.40;99.90;;;;;;5246508;28;20289;-48
2023/09/13 08:05:47;;;;;;;5.17;4.60;;;21.30;99.90;;;;;;5241962;28;20557;-51
2023/09/13 08:08:22;;;;;;;11.53;5.40;;;21.40;99.90;;;;;;5253250;28;20448;-51
2023/09/13 08:10:53;;;;;;;6.00;4.90;;;21.90;99.90;;;;;;5248699;28;20240;-50
2023/09/13 08:13:24;;;;;;;5.63;3.90;;;22.20;99.90;;;;;;5247641;28;20548;-50
2023/09/13 08:15:55;;;;;;;4.10;3.80;;;22.20;99.90;;;;;;5251946;28;20566;-51
2023/09/13 08:18:25;;;;;;;7.70;3.80;;;22.20;99.90;;;;;;5237221;28;20221;-51
2023/09/13 08:20:56;;;;;;;5.60;4.60;;;22.20;99.90;;;;;;5238657;28;20189;-52
2023/09/13 08:23:27;;;;;;;4.37;4.17;;;22.20;99.90;;;;;;5255671;28;20198;-49
2023/09/13 08:25:57;;;;;;;4.50;4.20;;;22.20;99.90;;;;;;5246898;28;20740;-50
2023/09/13 08:28:28;;;;;;;5.53;4.70;;;22.20;99.90;;;;;;5226189;28;20224;-50
2023/09/13 08:30:59;;;;;;;7.60;5.57;;;22.20;99.90;;;;;;5251223;28;20189;-52
2023/09/13 08:33:29;;;;;;;5.10;4.53;;;22.20;99.90;;;;;;5256658;28;20573;-51
2023/09/13 08:36:01;;;;;;;14.27;4.20;;;22.00;99.90;;;;;;5243902;28;20584;-51
2023/09/13 08:38:32;;;;;;;7.13;4.13;;;22.00;99.90;;;;;;5257279;28;20205;-52
2023/09/13 08:41:03;;;;;;;9.73;6.03;;;21.90;99.90;;;;;;5244336;28;20435;-50
2023/09/13 08:43:36;;;;;;;4.90;3.67;;;21.70;99.90;;;;;;5243185;28;20205;-52
2023/09/13 08:46:08;;;;;;;3.70;3.50;;;21.60;99.90;;;;;;5240600;28;20459;-52
2023/09/13 08:48:40;;;;;;;3.47;3.17;;;21.80;99.90;;;;;;5256903;28;20617;-51
2023/09/13 08:51:12;;;;;;;4.90;4.47;;;22.00;99.90;;;;;;5246426;28;20974;-50
2023/09/13 08:53:43;;;;;;;9.70;4.90;;;22.40;99.90;;;;;;5262312;28;20844;-51
2023/09/13 08:56:15;;;;;;;4.57;3.53;;;22.70;99.90;;;;;;5240756;28;20444;-52
2023/09/13 08:58:45;;;;;;;3.93;3.73;;;23.00;99.90;;;;;;5245094;28;20475;-51
2023/09/13 09:01:18;;;;;;;6.93;3.77;;;23.00;99.90;;;;;;5227857;28;20472;-52
2023/09/13 09:03:49;;;;;;;8.60;4.40;;;23.00;99.90;;;;;;5264039;28;20205;-52
2023/09/13 09:06:21;;;;;;;4.20;3.10;;;22.90;99.90;;;;;;5261427;28;20431;-52
2023/09/13 09:08:53;;;;;;;3.50;2.87;;;23.20;99.90;;;;;;5265165;28;20788;-51
2023/09/13 09:11:27;;;;;;;6.57;3.20;;;23.40;99.90;;;;;;5260485;28;20513;-53
2023/09/13 09:13:59;;;;;;;2.73;2.53;;;23.40;99.90;;;;;;5261970;28;20432;-51
2023/09/13 09:16:34;;;;;;;3.93;2.60;;;23.40;99.90;;;;;;5261912;28;20924;-50
2023/09/13 09:19:06;;;;;;;3.23;3.03;;;23.50;99.90;;;;;;5230665;28;20455;-54
2023/09/13 09:21:37;;;;;;;3.13;2.93;;;23.20;99.90;;;;;;5244966;28;20487;-51
2023/09/13 09:24:08;;;;;;;4.00;2.90;;;22.80;99.90;;;;;;5260614;28;20450;-51
2023/09/13 09:26:39;;;;;;;3.37;3.17;;;22.60;99.90;;;;;;5241250;28;20436;-49
2023/09/13 09:29:18;;;;;;;4.27;2.80;;;22.30;99.90;;;;;;5261601;28;20211;-52
2023/09/13 09:31:52;;;;;;;3.03;2.50;;;22.20;99.90;;;;;;5245421;28;20205;-51
2023/09/13 09:34:30;;;;;;;2.73;2.50;;;22.00;99.90;;;;;;5244897;28;20427;-51
2023/09/13 09:37:07;;;;;;;2.13;1.93;;;22.10;99.90;;;;;;5237070;28;20435;-51
2023/09/13 09:39:41;;;;;;;2.83;2.23;;;22.20;99.90;;;;;;5235531;28;20739;-50
2023/09/13 09:42:16;;;;;;;2.47;2.30;;;22.10;99.90;;;;;;5238602;28;20471;-51
2023/09/13 09:44:47;;;;;;;2.17;2.07;;;22.10;99.90;;;;;;5253144;28;20920;-50
2023/09/13 09:47:18;;;;;;;3.00;2.90;;;22.20;99.90;;;;;;5237453;28;20975;-51
2023/09/13 09:49:51;;;;;;;4.53;3.57;;;22.20;99.90;;;;;;5253417;28;20788;-49
2023/09/13 09:52:23;;;;;;;2.03;2.03;;;22.30;99.90;;;;;;5251115;28;20467;-50
2023/09/13 09:54:53;;;;;;;2.10;2.10;;;22.30;99.90;;;;;;5251818;28;20439;-52
2023/09/13 09:57:26;;;;;;;5.70;4.23;;;22.60;99.90;;;;;;5239759;28;20461;-53
2023/09/13 09:59:59;;;;;;;2.47;2.37;;;22.80;99.90;;;;;;5238797;28;20533;-51
2023/09/13 10:02:31;;;;;;;2.67;2.50;;;22.70;99.90;;;;;;5256443;28;20954;-52
2023/09/13 10:05:03;;;;;;;2.83;2.70;;;22.60;99.90;;;;;;5239429;28;20476;-52
2023/09/13 10:07:48;;;;;;;2.90;2.57;;;22.60;99.90;;;;;;5242154;28;20574;-51
2023/09/13 10:10:29;;;;;;;2.17;2.10;;;22.80;99.90;;;;;;5254272;28;20440;-50
2023/09/13 10:13:00;;;;;;;2.10;2.00;;;22.70;99.90;;;;;;5241319;28;20486;-50
2023/09/13 10:15:31;;;;;;;2.37;2.30;;;22.80;99.90;;;;;;5258647;28;20471;-50
2023/09/13 10:18:03;;;;;;;8.20;3.00;;;22.90;99.90;;;;;;5259278;28;20196;-52
2023/09/13 10:20:34;;;;;;;2.37;2.27;;;23.00;99.90;;;;;;5237973;28;20437;-52
2023/09/13 10:23:11;;;;;;;2.00;1.90;;;23.30;99.90;;;;;;5227613;28;20462;-52
2023/09/13 10:25:43;;;;;;;2.20;2.10;;;23.50;99.90;;;;;;5260520;28;21747;-51
2023/09/13 10:28:16;;;;;;;2.10;2.00;;;23.60;99.90;;;;;;5258873;28;20574;-52
2023/09/13 10:30:49;;;;;;;2.50;2.30;;;23.70;99.90;;;;;;5235936;28;20513;-50
2023/09/13 10:33:21;;;;;;;2.53;2.43;;;23.90;99.90;;;;;;5242587;28;20484;-52
2023/09/13 10:35:58;;;;;;;2.40;2.33;;;23.80;99.90;;;;;;5256056;28;20477;-51
2023/09/13 10:38:46;;;;;;;2.63;2.47;;;23.90;99.90;;;;;;5243841;28;20459;-51
2023/09/13 10:41:18;;;;;;;3.30;1.77;;;24.10;99.90;;;;;;5240352;28;20467;-51
2023/09/13 10:43:49;;;;;;;2.33;2.20;;;24.20;99.90;;;;;;5223289;28;20448;-54
2023/09/13 10:46:21;;;;;;;4.37;2.07;;;24.10;99.90;;;;;;5257324;28;20512;-51
2023/09/13 10:48:53;;;;;;;2.27;2.07;;;24.20;99.90;;;;;;5237078;28;20940;-50
2023/09/13 10:51:30;;;;;;;2.47;2.27;;;24.30;99.90;;;;;;5257002;28;20476;-55
2023/09/13 10:54:02;;;;;;;2.80;2.60;;;24.00;99.90;;;;;;5252385;28;20474;-52
2023/09/13 10:56:33;;;;;;;2.73;2.53;;;23.90;99.90;;;;;;5238720;28;20436;-53
2023/09/13 10:59:05;;;;;;;3.17;2.77;;;23.80;99.90;;;;;;5240665;28;20452;-52
2023/09/13 11:01:38;;;;;;;10.70;6.63;;;23.70;99.90;;;;;;5238556;28;20807;-51
2023/09/13 11:04:09;;;;;;;5.23;4.73;;;23.70;99.90;;;;;;5239998;28;20458;-52
2023/09/13 11:06:42;;;;;;;3.03;2.90;;;23.60;99.90;;;;;;5255813;28;20531;-52
2023/09/13 11:09:18;;;;;;;2.50;2.40;;;23.80;99.90;;;;;;5256049;28;20186;-50
2023/09/13 11:11:53;;;;;;;2.43;2.43;;;24.50;99.90;;;;;;5256837;28;20455;-52
2023/09/13 11:14:27;;;;;;;3.03;2.20;;;24.90;99.90;;;;;;5236566;28;20440;-51
2023/09/13 11:17:34;;;;;;;2.00;1.90;;;25.10;99.90;;;;;;5258691;28;20447;-53
2023/09/13 11:20:21;;;;;;;2.23;2.13;;;25.10;99.90;;;;;;5257022;28;20992;-51
2023/09/13 11:23:10;;;;;;;2.07;1.87;;;25.10;99.90;;;;;;5239461;28;20454;-52
2023/09/13 11:25:49;;;;;;;4.17;3.23;;;24.90;99.90;;;;;;5258213;28;20480;-52
2023/09/13 11:28:43;;;;;;;2.10;2.10;;;24.50;99.90;;;;;;5239130;28;20540;-52
2023/09/13 11:31:17;;;;;;;2.00;1.90;;;24.20;99.90;;;;;;5260349;28;20531;-53
2023/09/13 11:33:56;;;;;;;2.30;2.20;;;23.90;99.90;;;;;;5259284;28;20415;-52
2023/09/13 11:36:27;;;;;;;2.07;2.07;;;23.60;99.90;;;;;;5254762;28;20448;-53
2023/09/13 11:39:01;;;;;;;2.83;2.60;;;23.20;99.90;;;;;;5241703;28;20480;-52
2023/09/13 11:41:39;;;;;;;2.70;2.50;;;23.00;99.90;;;;;;5242754;28;20483;-52
2023/09/13 11:44:10;;;;;;;12.20;6.27;;;23.00;99.90;;;;;;5254852;28;20446;-52
2023/09/13 11:46:41;;;;;;;2.77;2.57;;;22.80;99.90;;;;;;5243002;28;20880;-52
2023/09/13 11:49:21;;;;;;;2.53;2.43;;;22.70;99.90;;;;;;5255696;28;20182;-52
2023/09/13 11:51:59;;;;;;;2.73;2.53;;;22.60;99.90;;;;;;5253561;28;20251;-52
2023/09/13 11:54:29;;;;;;;3.60;2.97;;;22.40;99.90;;;;;;5256195;28;20951;-52
2023/09/13 11:57:03;;;;;;;4.10;2.00;;;21.80;99.90;;;;;;5254739;28;20446;-53
2023/09/13 11:59:34;;;;;;;1.83;1.83;;;21.50;99.90;;;;;;5241324;28;20205;-52
2023/09/13 12:02:11;;;;;;;3.70;2.60;;;21.20;99.90;;;;;;5256205;28;20456;-54
2023/09/13 12:04:43;;;;;;;2.37;2.27;;;21.00;99.90;;;;;;5239149;28;20189;-53
2023/09/13 12:07:14;;;;;;;7.00;4.93;;;20.90;99.90;;;;;;5244393;28;20431;-51
2023/09/13 12:09:55;;;;;;;3.63;3.43;;;20.80;99.90;;;;;;5246252;28;20437;-53
2023/09/13 12:12:26;;;;;;;4.43;3.03;;;20.70;99.90;;;;;;5265650;28;20731;-52
2023/09/13 12:15:01;;;;;;;6.03;2.70;;;20.70;99.90;;;;;;5245823;28;20461;-52
2023/09/13 12:17:38;;;;;;;3.00;2.80;;;20.70;99.90;;;;;;5247837;28;21298;-51
2023/09/13 12:20:10;;;;;;;5.23;3.30;;;20.70;99.90;;;;;;5263202;28;20459;-52
2023/09/13 12:22:41;;;;;;;2.60;2.50;;;20.80;99.90;;;;;;5248724;28;20456;-52
2023/09/13 12:25:13;;;;;;;2.70;2.60;;;21.00;99.90;;;;;;5264146;28;20796;-53
2023/09/13 12:27:46;;;;;;;3.63;3.23;;;21.20;99.90;;;;;;5250788;28;20478;-52
2023/09/13 12:30:19;;;;;;;3.47;2.60;;;21.40;99.90;;;;;;5263874;28;20531;-52
2023/09/13 12:32:51;;;;;;;3.40;2.70;;;21.60;99.90;;;;;;5261421;28;20814;-51
2023/09/13 12:35:23;;;;;;;3.70;3.40;;;21.60;99.90;;;;;;5232923;28;20450;-53
2023/09/13 12:37:58;;;;;;;4.00;2.70;;;21.70;99.90;;;;;;5267294;28;20436;-52
2023/09/13 12:40:29;;;;;;;2.33;2.23;;;21.60;99.90;;;;;;5248689;28;20801;-52
2023/09/13 12:43:00;;;;;;;2.37;2.27;;;21.60;99.90;;;;;;5262461;28;20446;-52
2023/09/13 12:45:31;;;;;;;2.80;2.60;;;21.60;99.90;;;;;;5233731;28;20177;-54
2023/09/13 12:48:01;;;;;;;2.10;2.00;;;21.70;99.90;;;;;;5245507;28;20537;-51
2023/09/13 12:50:33;;;;;;;2.80;2.60;;;21.90;99.90;;;;;;5261123;28;20212;-53
2023/09/13 12:53:04;;;;;;;2.60;2.40;;;22.10;99.90;;;;;;5229176;28;20247;-53
2023/09/13 12:55:37;;;;;;;9.60;3.63;;;22.40;99.90;;;;;;5265039;28;20440;-51
2023/09/13 12:58:07;;;;;;;2.57;2.47;;;22.50;99.90;;;;;;5248707;28;20177;-52
2023/09/13 13:00:52;;;;;;;3.20;2.50;;;22.60;99.90;;;;;;5263361;28;20424;-52
2023/09/13 13:03:28;;;;;;;4.57;2.80;;;22.70;99.90;;;;;;5267938;28;20202;-52
2023/09/13 13:06:01;;;;;;;3.47;3.27;;;22.80;99.90;;;;;;5262251;28;20434;-51
2023/09/13 13:08:38;;;;;;;3.87;3.67;;;22.90;99.90;;;;;;5262027;28;20436;-53